Airfield :







YOU CAN JOIN US ON...

 
LOGIN :

Register | Disclaimer

   EN    FR    IT 

 









Legend :    VFR   Marginal VFR   IFR   Intensive IFR   Very Intensive IFR
Visi :
Ceiling :
>= 8 km
>= 3000ft
5 to 8 km
1000 to 3000 ft
1500m to 5 km
500 to 1000 ft
800 to 1500m
200 to 500 ft
< 800m
< 200 ft
Symbols :   Thunderstorms  Fog  Heavy snow  Heavy precipitations  Wind > 20 kt






- Airport Elevation : 175 ft
- IATA code : YLC


CYLC - Kimmirut

CURRENT METAR :
  • 071316Z 19003KT 160V230 3SM MIFG OVC010 VV012 08/08 A2973 RMK ST6FG2 FG OFSHR SLP072

EXPIRED METARs :
  • 071300Z 20005KT 150V240 1/2SM FG OVC004 VV008 08/08 A2973 RMK ST4FG4 SLP072
  • 071200Z 21007KT 1/2SM FG OVC008 VV012 08/08 A2974 RMK ST4FG4 RTR AFT 19Z SLP076

TAF N/A
CZUL FIR / North America



MET'MAP, your aeronautical weather chart ! - Copyright ORBIFLY December 2007 - Disclaimer

ORBIFLY MET'MAP TEAM :

Programming & Development : Alexandra Zaïnal
Concept & original design : Baudouin d'Aumeries
Assistance for programming : Marc-Olivier Méhu
Technical & hardware support : Manuel Goepfert

Contact : metmap@orbifly.com




SOURCES & CREDITS :

   NOAA